aviador You're here:

KGKJ Decoded Metar

MEADVILLE in PA, USA
Report Time2017-09-24 00:53:00
UTC Time2017-09-24 01:22:00
Flight Rules vfr VFR
WindCalm
Visibility9999 m
Phenomena:N/A
Clouds:N/A
Expected CloudBase > 2,400 ft AGL from Temp-Dew spread
CeilingNone
Temp23°C (ISA +11)
Dew Point17°C (69% RH)
QNH1021 hPa
Density Alt2,651 ft
Elevation1,404 ft
Report Wrong Elevation
Raw Report
KGKJ 240053Z AUTO 00000KT 10SM CLR 23/17 A3016 RMK AO2 SLP208
T02280172=

Extra information for KGKJ:More info

Metar Taf Metar & Taf Last 4 Metars F.Rules Stats Wind Profile Meteogram Temp Stats Airport Information Weather charts Add Link Nearby VenuesMetar ALERT Operation Metar Decoded Social comments

AIRNAV info for KGKJ